Diepenbeek, Belgium
Current Conditions -  °F | °C
As of 8:55 PM on Saturday 20 Dec 2014 (Local Time) from EHBK Reporting Station
Drizzle Drizzle  
Wind Chill: 40°   Ceiling: 2600
Heat Index: 45°   Visibility: 6mi
Dew Point: 39°   Wind: 9mph
Humidity: 81%   Direction: 260°W
Pressure: 30.3"   Gusts: NA
Location:  50.91°N, 5.42°E
Report Text: EHBK 201955Z AUTO 26008KT 210V310 9999 DZ FEW015CB BKN026OVC031 07/04 Q1026 BECMG NSW
Loading
Personal Weather Stations






























Interactive Weather Map New forecast layout! Learn more

10-Day Weather Forecast

Advertisements
Track Severe Weather on mobile